25 września 2022

Czas Kod Pogoda Temp. Widoczność Sufit Wiatr METAR/SPECI
11:25
M
14 °C 10 km+ 2.400 ft 310° 310° 8 kt METAR EHLE 250925Z AUTO 31008KT 260V040 9999 SCT019 BKN024 BKN030 14/10 Q1015 NOSIG
10:55
V
15 °C 10 km+ - 310° 310° 5 kt METAR EHLE 250855Z AUTO 31005KT 270V340 9999 NSC 15/11 Q1015 NOSIG
10:25
V
14 °C 10 km+ - 330° 330° 4 kt METAR EHLE 250825Z AUTO 33004KT 280V050 9999 FEW015 14/11 Q1015 NOSIG
09:55
M
13 °C 10 km+ 1.900 ft Var Var 1 kt METAR EHLE 250755Z AUTO VRB01KT 9999 OVC019 13/11 Q1015 NOSIG
09:25
V
11 °C 10 km+ - 280° 280° 2 kt METAR EHLE 250725Z AUTO 28002KT 9999 NCD 11/11 Q1015 NOSIG
08:55
V
9 °C 10 km+ - 280° 280° 2 kt METAR EHLE 250655Z AUTO 28002KT 9999 NCD 09/09 Q1015 NOSIG
08:25
V
7 °C 10 km+ - Var Var 1 kt METAR EHLE 250625Z AUTO VRB01KT 9999 NCD 07/07 Q1015 NOSIG
07:55
V
6 °C 10 km+ - Var Var 1 kt METAR EHLE 250555Z AUTO VRB01KT 9999 NCD 06/06 Q1015 NOSIG
07:25
V
6 °C 10 km+ - 320° 320° 1 kt METAR EHLE 250525Z AUTO 32001KT 9999 NCD 06/06 Q1015 NOSIG
06:55
V
7 °C 10 km+ - Var Var 2 kt METAR EHLE 250455Z AUTO VRB02KT 9999 FEW032 07/07 Q1015 NOSIG
06:25
V
6 °C 10 km+ - 320° 320° 4 kt METAR EHLE 250425Z AUTO 32004KT 9999 NCD 06/06 Q1015
05:55
V
7 °C 10 km+ - 300° 300° 3 kt METAR EHLE 250355Z AUTO 30003KT 9999 NSC 07/06 Q1015
05:25
V
7 °C 10 km+ - 300° 300° 1 kt METAR EHLE 250325Z AUTO 30001KT 9999 NSC 07/07 Q1015
04:55
V
7 °C 9 km - 320° 320° 2 kt METAR EHLE 250255Z AUTO 32002KT 9000 NCD 07/06 Q1015
04:25
V
7 °C 10 km+ - 290° 290° 3 kt METAR EHLE 250225Z AUTO 29003KT 9999 NSC 07/07 Q1015
03:55
V
7 °C 10 km+ - 320° 320° 3 kt METAR EHLE 250155Z AUTO 32003KT 9999 NCD 07/07 Q1015
03:25
V
8 °C 10 km+ - 340° 340° 3 kt METAR EHLE 250125Z AUTO 34003KT 320V050 9999 NCD 08/08 Q1016
02:55
V
8 °C 10 km+ - 320° 320° 4 kt METAR EHLE 250055Z AUTO 32004KT 9999 NCD 08/08 Q1016
02:25
V
8 °C 10 km+ - 320° 320° 4 kt METAR EHLE 250025Z AUTO 32004KT 9999 NCD 08/08 Q1016
01:55
V
8 °C 10 km+ - 310° 310° 3 kt METAR EHLE 242355Z AUTO 31003KT 9999 NCD 08/08 Q1015
01:25
V
8 °C 10 km+ - 340° 340° 3 kt METAR EHLE 242325Z AUTO 34003KT 9999 NCD 08/08 Q1015
00:55
V
9 °C 10 km+ - 310° 310° 3 kt METAR EHLE 242255Z AUTO 31003KT 9999 NCD 09/08 Q1015
00:25
V
9 °C 10 km+ - 310° 310° 3 kt METAR EHLE 242225Z AUTO 31003KT 9999 NCD 09/08 Q1016

24 września 2022

Czas Kod Pogoda Temp. Widoczność Sufit Wiatr METAR/SPECI
23:55
V
9 °C 10 km+ - 350° 350° 4 kt METAR EHLE 242155Z AUTO 35004KT 330V030 9999 FEW028 09/08 Q1015
23:25
V
10 °C 10 km+ - 350° 350° 5 kt METAR EHLE 242125Z AUTO 35005KT 9999 NCD 10/08 Q1015
22:55
V
11 °C 10 km+ - 360° 360° 6 kt METAR EHLE 242055Z AUTO 36006KT 9999 NCD 11/09 Q1015
22:25
V
11 °C 10 km+ - 350° 350° 6 kt METAR EHLE 242025Z AUTO 35006KT 9999 NSC 11/09 Q1015
21:55
V
11 °C 10 km+ - 360° 360° 5 kt METAR EHLE 241955Z AUTO 36005KT 9999 NCD 11/09 Q1015 NOSIG
21:25
V
11 °C 10 km+ - 360° 360° 6 kt METAR EHLE 241925Z AUTO 36006KT 9999 NSC 11/09 Q1015 NOSIG
20:55
V
12 °C 10 km+ - 010° 010° 5 kt METAR EHLE 241855Z AUTO 01005KT 9999 NSC 12/09 Q1015 NOSIG
20:25
V
12 °C 10 km+ - 010° 010° 8 kt METAR EHLE 241825Z AUTO 01008KT 9999 NSC 12/09 Q1015 NOSIG
19:55
V
13 °C 10 km+ - 010° 010° 8 kt METAR EHLE 241755Z AUTO 01008KT 9999 NSC 13/09 Q1014 NOSIG
19:25
V
13 °C 10 km+ - 010° 010° 7 kt METAR EHLE 241725Z AUTO 01007KT 9999 NSC 13/09 Q1014 NOSIG
18:55
V
14 °C 10 km+ - 030° 030° 11 kt METAR EHLE 241655Z AUTO 03011KT 9999 NSC 14/09 Q1014 NOSIG
18:25
V
15 °C 10 km+ - 020° 020° 13 kt METAR EHLE 241625Z AUTO 02013KT 360V060 9999 FEW031 15/10 Q1014 NOSIG
17:55
V
16 °C 10 km+ - 020° 020° 10 kt METAR EHLE 241555Z AUTO 02010KT 9999 NSC 16/11 Q1013 NOSIG
17:25
V
16 °C 10 km+ - 030° 030° 10 kt METAR EHLE 241525Z AUTO 03010KT 360V060 9999 FEW037 16/11 Q1013 NOSIG
16:55
V
16 °C 10 km+ - 020° 020° 9 kt METAR EHLE 241455Z AUTO 02009KT 9999 SCT027 SCT031 16/11 Q1013 NOSIG
16:25
V
16 °C 10 km+ - 020° 020° 11 kt METAR EHLE 241425Z AUTO 02011KT 9999 FEW026 16/11 Q1013 NOSIG
15:55
V
16 °C 10 km+ 4.300 ft 020° 020° 9 kt METAR EHLE 241355Z AUTO 02009KT 340V050 9999 SCT023 SCT034 BKN043 16/11 Q1013 NOSIG
15:25
V
16 °C 10 km+ - 020° 020° 11 kt METAR EHLE 241325Z AUTO 02011KT 9999 FEW025 SCT031 16/12 Q1013 NOSIG
14:55
V
16 °C 10 km+ - 020° 020° 10 kt METAR EHLE 241255Z AUTO 02010KT 350V050 9999 FEW020 SCT046 16/12 Q1013 NOSIG
14:25
V
16 °C 10 km+ 4.900 ft 020° 020° 12 kt METAR EHLE 241225Z AUTO 02012KT 340V050 9999 OVC049 16/12 Q1013 NOSIG
13:55
V
16 °C 10 km+ 3.600 ft 020° 020° 10 kt METAR EHLE 241155Z AUTO 02010KT 350V050 9999 SCT020 OVC036 16/12 Q1013 NOSIG
13:25
M
15 °C 10 km+ 2.900 ft 020° 020° 7 kt METAR EHLE 241125Z AUTO 02007KT 340V040 9999 SCT018 SCT022 OVC029 15/13 Q1013 NOSIG
12:55
M
15 °C 10 km+ 1.900 ft 020° 020° 9 kt METAR EHLE 241055Z AUTO 02009KT 350V050 9999 SCT015 OVC019 15/13 Q1013 NOSIG
12:25
M
15 °C 10 km+ 2.700 ft 020° 020° 6 kt METAR EHLE 241025Z AUTO 02006KT 9999 FEW014 SCT017 BKN027 15/14 Q1013 NOSIG
11:55
M
14 °C 10 km+ 2.200 ft 030° 030° 7 kt METAR EHLE 240955Z AUTO 03007KT 9999 FEW016 BKN022 OVC025 14/14 Q1013 NOSIG
11:25
M
14 °C 6 km 1.400 ft 030° 030° 9 kt METAR EHLE 240925Z AUTO 03009KT 6000 DZ FEW005 SCT011 BKN014 14/13 Q1012 BECMG 9999 FEW020
10:55
I
14 °C 10 km+ 600 ft 030° 030° 11 kt METAR EHLE 240855Z AUTO 03011KT 9999 SCT004 BKN006 BKN008 14/13 Q1012 BECMG BKN020
10:25
I
13 °C 9 km 600 ft 020° 020° 5 kt METAR EHLE 240825Z AUTO 02005KT 9000 SCT005 BKN006 OVC007 13/13 Q1012 REDZ BECMG 03012KT 9999 NSW BKN020
09:55
I
13 °C 2,1 km 600 ft 010° 010° 2 kt METAR EHLE 240755Z AUTO 01002KT 2100 -RADZ SCT002 BKN006 OVC008 13/13 Q1012 BECMG 03012KT 9999 NSW BKN020
09:25
I
13 °C 2,5 km 1.100 ft Var Var 1 kt METAR EHLE 240725Z AUTO VRB01KT 2500 SHRA +DZ FEW002 SCT004 BKN011 13/13 Q1011 BECMG 03012KT 9999 NSW
08:55
I
13 °C 2,4 km 1.600 ft 150° 150° 3 kt METAR EHLE 240655Z AUTO 15003KT 2400 DZ FEW001 OVC016 13/13 Q1011 BECMG 03012KT 9999 NSW
08:25
I
13 °C 2,1 km 1.400 ft 190° 190° 2 kt METAR EHLE 240625Z AUTO 19002KT 2100 -RA FEW005 SCT011 BKN014 13/13 Q1011 RERA BECMG 03012KT 9999 NSW SCT015 BKN025
07:55
I
13 °C 2,2 km 2.200 ft Var Var 2 kt METAR EHLE 240555Z AUTO VRB02KT 2200 RA FEW003 FEW015CB BKN022 OVC026 13/13 Q1011 BECMG 03012KT 9999 NSW SCT015 BKN025
07:25
I
13 °C 4,4 km 2.700 ft 190° 190° 4 kt METAR EHLE 240525Z AUTO 19004KT 4400 DZRA FEW005 FEW015CB OVC027 13/13 Q1011 BECMG 03012KT 9999 NSW SCT015 BKN025
06:55
M
13 °C 5 km 1.000 ft 170° 170° 3 kt METAR EHLE 240455Z AUTO 17003KT 5000 DZ FEW004 BKN010 BKN015CB 13/13 Q1011 BECMG 03012KT 9999 NSW SCT015 BKN025
06:25
I
13 °C 5 km 700 ft 170° 170° 3 kt METAR EHLE 240425Z AUTO 17003KT 5000 -RA FEW004 SCT005 BKN007 FEW015CB 13/13 Q1011
05:55
I
13 °C 5 km 800 ft 180° 180° 4 kt METAR EHLE 240355Z AUTO 18004KT 5000 -RA FEW004 SCT006 BKN008 FEW015CB 13/13 Q1011
05:25
L
13 °C 2,8 km 300 ft 180° 180° 2 kt METAR EHLE 240325Z AUTO 18002KT 2800 -RA BKN003 BKN004 FEW015CB 13/13 Q1011
04:55
L
13 °C 2,6 km 400 ft 190° 190° 3 kt METAR EHLE 240255Z AUTO 19003KT 160V220 2600 -RA SCT003 BKN004 BKN006 FEW015CB 13/13 Q1011 RERA
04:25
I
13 °C 2,2 km 600 ft 170° 170° 4 kt METAR EHLE 240225Z AUTO 17004KT 2200 -SHRA FEW004 BKN006 OVC007 13/13 Q1011 REDZ
03:55
I
13 °C 2,3 km 600 ft 170° 170° 4 kt METAR EHLE 240155Z AUTO 17004KT 2300 -RADZ BKN006 OVC007 13/13 Q1011
03:25
I
14 °C 3,1 km 900 ft 170° 170° 5 kt METAR EHLE 240125Z AUTO 17005KT 3100 -DZ FEW008 BKN009 OVC010 14/13 Q1011 REDZ
02:55
I
14 °C 3,3 km 800 ft 160° 160° 4 kt METAR EHLE 240055Z AUTO 16004KT 3300 BR SCT007 BKN008 OVC010 14/13 Q1012
02:25
M
13 °C 6 km 2.700 ft 190° 190° 5 kt METAR EHLE 240025Z AUTO 19005KT 6000 FEW011 SCT013 BKN027 13/13 Q1012
01:55
V
14 °C 10 km+ - 200° 200° 5 kt METAR EHLE 232355Z AUTO 20005KT 170V230 9999 NSC 14/13 Q1012
01:25
V
14 °C 10 km+ - 210° 210° 7 kt METAR EHLE 232325Z AUTO 21007KT 9999 NSC 14/13 Q1012
00:55
M
14 °C 5 km - 190° 190° 5 kt METAR EHLE 232255Z AUTO 19005KT 5000 BR FEW012 14/13 Q1012
00:25
M
14 °C 6 km - 200° 200° 4 kt METAR EHLE 232225Z AUTO 20004KT 6000 -RA FEW048 14/13 Q1012

23 września 2022

Czas Kod Pogoda Temp. Widoczność Sufit Wiatr METAR/SPECI
23:55
M
14 °C 7 km 1.100 ft 200° 200° 5 kt METAR EHLE 232155Z AUTO 20005KT 7000 FEW009 BKN011 14/13 Q1012
23:25
V
14 °C 8 km - 200° 200° 6 kt METAR EHLE 232125Z AUTO 20006KT 8000 FEW010 SCT012 14/13 Q1012
22:55
M
14 °C 8 km 1.500 ft 200° 200° 5 kt METAR EHLE 232055Z AUTO 20005KT 180V240 8000 SCT013 BKN015 14/14 Q1013
22:25
M
14 °C 5 km 4.900 ft 190° 190° 6 kt METAR EHLE 232025Z AUTO 19006KT 5000 BR BKN049 14/14 Q1013 REDZ
21:55
M
14 °C 7 km - 190° 190° 6 kt METAR EHLE 231955Z AUTO 19006KT 7000 FEW047 14/14 Q1013 BECMG 9999
21:25
M
14 °C 7 km - 200° 200° 7 kt METAR EHLE 231925Z AUTO 20007KT 7000 NSC 14/14 Q1013 NOSIG
20:55
V
14 °C 8 km - 200° 200° 6 kt METAR EHLE 231855Z AUTO 20006KT 8000 -DZRA NSC 14/14 Q1013 NOSIG
20:25
V
15 °C 10 km+ - 200° 200° 5 kt METAR EHLE 231825Z AUTO 20005KT 9999 NSC 15/13 Q1013 NOSIG
19:55
V
14 °C 10 km+ - 200° 200° 5 kt METAR EHLE 231755Z AUTO 20005KT 9999 FEW027 14/13 Q1013 NOSIG
19:25
V
14 °C 9 km - 160° 160° 4 kt METAR EHLE 231725Z AUTO 16004KT 9000 DZ NSC 14/14 Q1013 NOSIG
18:55
M
15 °C 10 km+ 2.300 ft 170° 170° 5 kt METAR EHLE 231655Z AUTO 17005KT 9999 DZ BKN023 BKN026 15/13 Q1013 NOSIG
18:25
V
16 °C 10 km+ 4.700 ft 180° 180° 4 kt METAR EHLE 231625Z AUTO 18004KT 9999 -RA BKN047 16/12 Q1013 RERA REDZ NOSIG
17:55
V
16 °C 10 km+ - 170° 170° 4 kt METAR EHLE 231555Z AUTO 17004KT 9999 NSC 16/12 Q1013 NOSIG
17:25
V
16 °C 10 km+ - 180° 180° 4 kt METAR EHLE 231525Z AUTO 18004KT 9999 FEW049 16/11 Q1013 NOSIG
16:55
V
17 °C 10 km+ - 190° 190° 6 kt METAR EHLE 231455Z AUTO 19006KT 9999 NSC 17/11 Q1014 NOSIG
16:25
V
17 °C 10 km+ 4.600 ft 210° 210° 7 kt METAR EHLE 231425Z AUTO 21007KT 180V240 9999 BKN046 17/10 Q1014 NOSIG
15:55
V
17 °C 10 km+ 4.500 ft 200° 200° 6 kt METAR EHLE 231355Z AUTO 20006KT 160V220 9999 OVC045 17/11 Q1014 NOSIG
15:25
V
17 °C 10 km+ 4.400 ft 200° 200° 6 kt METAR EHLE 231325Z AUTO 20006KT 9999 OVC044 17/11 Q1014 NOSIG
14:55
V
17 °C 10 km+ 4.600 ft 190° 190° 6 kt METAR EHLE 231255Z AUTO 19006KT 160V220 9999 OVC046 17/11 Q1014 NOSIG
14:25
V
17 °C 10 km+ 4.900 ft 190° 190° 6 kt METAR EHLE 231225Z AUTO 19006KT 160V220 9999 OVC049 17/11 Q1015 NOSIG
13:55
V
16 °C 10 km+ 4.900 ft 190° 190° 5 kt METAR EHLE 231155Z AUTO 19005KT 160V220 9999 FEW043 OVC049 16/11 Q1015 NOSIG
13:25
V
16 °C 10 km+ 4.800 ft 200° 200° 5 kt METAR EHLE 231125Z AUTO 20005KT 9999 OVC048 16/10 Q1015 NOSIG
12:55
V
15 °C 10 km+ 4.700 ft 190° 190° 6 kt METAR EHLE 231055Z AUTO 19006KT 160V220 9999 OVC047 15/10 Q1015 NOSIG
12:25
V
15 °C 10 km+ 4.100 ft 200° 200° 6 kt METAR EHLE 231025Z AUTO 20006KT 9999 OVC041 15/10 Q1015 NOSIG
11:55
V
15 °C 10 km+ 4.800 ft 200° 200° 5 kt METAR EHLE 230955Z AUTO 20005KT 9999 OVC048 15/10 Q1015 NOSIG
Starsze dane

My i osoby trzecie śledzimy twoje zachowanie w internecie na naszej stronie za pomocą plików cookie. Jeśli kontynuujesz, zakładamy, że zgadzasz się z naszą polityką plików cookie. Dowiedz się więcej